AVA8518 SKPE-SKBO
Flight info
| Callsign | AVA8518 |
|---|---|
| Flight time | 0h 28m |
| Altitude | 19000 |
| Route | TOLIM1D TOLIM TOLIM5E |
| Aircraft | A320/M-SDE3FGHIRWY/LB1 |
Departure
| Time | 2026-04-30 20:58 |
|---|---|
| Airport | Matecaña International Airport (SKPE) |
Arrival
| Time | 2026-04-30 21:27 |
|---|---|
| Airport | El Dorado International Airport (SKBO) |
| Time | Latitude | Longitude | Altitude | Speed | Heading |
|---|---|---|---|---|---|
| 2026-04-30 20:31 | 4.81500 | -75.73757 | 4401 ft | 0 kts | 342° |
| 2026-04-30 20:52 | 4.81469 | -75.73750 | 4400 ft | 4 kts | 0° |
| 2026-04-30 20:53 | 4.81445 | -75.73755 | 4400 ft | 4 kts | 41° |
| 2026-04-30 20:53 | 4.81436 | -75.73767 | 4399 ft | 1 kts | 72° |
| 2026-04-30 20:53 | 4.81435 | -75.73770 | 4399 ft | 1 kts | 72° |
| 2026-04-30 20:55 | 4.81437 | -75.73762 | 4400 ft | 5 kts | 72° |
| 2026-04-30 20:55 | 4.81457 | -75.73704 | 4402 ft | 13 kts | 71° |
| 2026-04-30 20:55 | 4.81485 | -75.73612 | 4405 ft | 13 kts | 72° |
| 2026-04-30 20:56 | 4.81472 | -75.73480 | 4410 ft | 11 kts | 162° |
| 2026-04-30 20:56 | 4.81444 | -75.73417 | 4411 ft | 14 kts | 72° |
| 2026-04-30 20:56 | 4.81508 | -75.73219 | 4417 ft | 14 kts | 72° |
| 2026-04-30 20:57 | 4.81538 | -75.73128 | 4420 ft | 13 kts | 72° |
| 2026-04-30 20:57 | 4.81581 | -75.73064 | 4424 ft | 8 kts | 74° |
| 2026-04-30 20:57 | 4.81557 | -75.73066 | 4423 ft | 4 kts | 255° |
| 2026-04-30 20:58 | 4.81484 | -75.73292 | 4415 ft | 76 kts | 252° |
| 2026-04-30 20:58 | 4.81232 | -75.74069 | 4386 ft | 155 kts | 252° |
| 2026-04-30 20:58 | 4.80856 | -75.75228 | 4866 ft | 180 kts | 252° |
| 2026-04-30 20:58 | 4.80467 | -75.76424 | 5819 ft | 178 kts | 252° |
| 2026-04-30 20:59 | 4.79716 | -75.78748 | 7039 ft | 173 kts | 252° |
| 2026-04-30 20:59 | 4.79347 | -75.79890 | 7565 ft | 172 kts | 252° |
| 2026-04-30 21:00 | 4.78164 | -75.82198 | 8015 ft | 208 kts | 210° |
| 2026-04-30 21:00 | 4.75188 | -75.82154 | 8561 ft | 232 kts | 162° |
| 2026-04-30 21:01 | 4.72128 | -75.81041 | 9604 ft | 235 kts | 158° |
| 2026-04-30 21:01 | 4.70591 | -75.80476 | 10089 ft | 236 kts | 159° |
| 2026-04-30 21:01 | 4.67380 | -75.79703 | 10928 ft | 239 kts | 166° |
| 2026-04-30 21:02 | 4.65742 | -75.79385 | 11283 ft | 245 kts | 167° |
| 2026-04-30 21:02 | 4.63970 | -75.79055 | 11428 ft | 270 kts | 168° |
| 2026-04-30 21:02 | 4.62032 | -75.78751 | 11654 ft | 293 kts | 170° |
| 2026-04-30 21:02 | 4.59977 | -75.78466 | 12221 ft | 301 kts | 170° |
| 2026-04-30 21:03 | 4.57886 | -75.78189 | 12952 ft | 304 kts | 171° |
| 2026-04-30 21:03 | 4.55791 | -75.77911 | 13750 ft | 304 kts | 170° |
| 2026-04-30 21:03 | 4.53676 | -75.77626 | 14376 ft | 308 kts | 170° |
| 2026-04-30 21:03 | 4.51565 | -75.77336 | 14996 ft | 312 kts | 170° |
| 2026-04-30 21:04 | 4.49403 | -75.76823 | 15210 ft | 329 kts | 154° |
| 2026-04-30 21:04 | 4.47414 | -75.75597 | 15330 ft | 345 kts | 138° |
| 2026-04-30 21:04 | 4.44551 | -75.71674 | 16276 ft | 356 kts | 112° |
| 2026-04-30 21:05 | 4.43753 | -75.69318 | 16834 ft | 359 kts | 107° |
| 2026-04-30 21:05 | 4.42996 | -75.66925 | 17419 ft | 361 kts | 107° |
| 2026-04-30 21:05 | 4.42238 | -75.64515 | 17968 ft | 366 kts | 107° |
| 2026-04-30 21:05 | 4.41471 | -75.62065 | 18488 ft | 369 kts | 107° |
| 2026-04-30 21:06 | 4.40696 | -75.59597 | 18842 ft | 372 kts | 107° |
| 2026-04-30 21:06 | 4.39919 | -75.57125 | 18935 ft | 371 kts | 107° |
| 2026-04-30 21:06 | 4.39148 | -75.54665 | 18950 ft | 370 kts | 107° |
| 2026-04-30 21:06 | 4.38569 | -75.52161 | 18961 ft | 369 kts | 96° |
| 2026-04-30 21:07 | 4.38573 | -75.49595 | 18954 ft | 370 kts | 83° |
| 2026-04-30 21:07 | 4.39171 | -75.47093 | 18962 ft | 371 kts | 71° |
| 2026-04-30 21:07 | 4.40313 | -75.44768 | 18960 ft | 373 kts | 62° |
| 2026-04-30 21:07 | 4.41590 | -75.42500 | 18950 ft | 373 kts | 62° |
| 2026-04-30 21:08 | 4.42858 | -75.40225 | 18967 ft | 376 kts | 62° |
| 2026-04-30 21:08 | 4.44127 | -75.37933 | 18957 ft | 376 kts | 63° |
| 2026-04-30 21:08 | 4.45394 | -75.35644 | 18944 ft | 375 kts | 63° |
| 2026-04-30 21:08 | 4.46661 | -75.33358 | 18914 ft | 375 kts | 63° |
| 2026-04-30 21:09 | 4.47930 | -75.31072 | 18909 ft | 375 kts | 63° |
| 2026-04-30 21:09 | 4.49201 | -75.28787 | 18905 ft | 375 kts | 62° |
| 2026-04-30 21:09 | 4.50474 | -75.26505 | 18903 ft | 375 kts | 62° |
| 2026-04-30 21:09 | 4.51744 | -75.24223 | 18898 ft | 375 kts | 63° |
| 2026-04-30 21:10 | 4.53013 | -75.21938 | 18897 ft | 375 kts | 63° |
| 2026-04-30 21:10 | 4.54262 | -75.19685 | 18886 ft | 375 kts | 63° |
| 2026-04-30 21:10 | 4.55528 | -75.17400 | 18886 ft | 375 kts | 63° |
| 2026-04-30 21:10 | 4.56796 | -75.15113 | 18888 ft | 375 kts | 63° |
| 2026-04-30 21:11 | 4.58063 | -75.12830 | 18897 ft | 375 kts | 63° |
| 2026-04-30 21:11 | 4.59334 | -75.10547 | 18897 ft | 375 kts | 62° |
| 2026-04-30 21:11 | 4.60604 | -75.08265 | 18903 ft | 375 kts | 63° |
| 2026-04-30 21:11 | 4.61873 | -75.05985 | 18883 ft | 375 kts | 63° |
| 2026-04-30 21:12 | 4.63143 | -75.03702 | 18874 ft | 375 kts | 63° |
| 2026-04-30 21:12 | 4.64414 | -75.01419 | 18870 ft | 375 kts | 63° |
| 2026-04-30 21:12 | 4.65689 | -74.99130 | 18872 ft | 376 kts | 63° |
| 2026-04-30 21:12 | 4.66963 | -74.96839 | 18870 ft | 376 kts | 63° |
| 2026-04-30 21:13 | 4.68235 | -74.94546 | 18868 ft | 376 kts | 63° |
| 2026-04-30 21:13 | 4.69502 | -74.92256 | 18868 ft | 376 kts | 63° |
| 2026-04-30 21:13 | 4.70771 | -74.89963 | 18866 ft | 376 kts | 63° |
| 2026-04-30 21:13 | 4.72044 | -74.87669 | 18872 ft | 377 kts | 63° |
| 2026-04-30 21:14 | 4.73320 | -74.85370 | 18872 ft | 377 kts | 63° |
| 2026-04-30 21:14 | 4.74602 | -74.83075 | 18872 ft | 378 kts | 61° |
| 2026-04-30 21:14 | 4.76301 | -74.81066 | 18872 ft | 383 kts | 40° |
| 2026-04-30 21:14 | 4.78636 | -74.79837 | 18841 ft | 377 kts | 18° |
| 2026-04-30 21:15 | 4.81206 | -74.79579 | 18731 ft | 370 kts | 357° |
| 2026-04-30 21:15 | 4.83723 | -74.79856 | 18595 ft | 358 kts | 1° |
| 2026-04-30 21:15 | 4.86128 | -74.79520 | 18375 ft | 344 kts | 21° |
| 2026-04-30 21:15 | 4.88230 | -74.78483 | 18160 ft | 334 kts | 39° |
| 2026-04-30 21:16 | 4.89900 | -74.76913 | 17862 ft | 327 kts | 55° |
| 2026-04-30 21:16 | 4.91038 | -74.74974 | 17606 ft | 321 kts | 70° |
| 2026-04-30 21:16 | 4.91591 | -74.72826 | 17330 ft | 317 kts | 85° |
| 2026-04-30 21:16 | 4.91628 | -74.70627 | 16942 ft | 314 kts | 92° |
| 2026-04-30 21:17 | 4.91599 | -74.68443 | 16566 ft | 313 kts | 92° |
| 2026-04-30 21:17 | 4.91571 | -74.66264 | 16223 ft | 312 kts | 92° |
| 2026-04-30 21:17 | 4.91546 | -74.64131 | 15863 ft | 309 kts | 92° |
| 2026-04-30 21:17 | 4.91521 | -74.61979 | 15496 ft | 308 kts | 92° |
| 2026-04-30 21:18 | 4.91499 | -74.59839 | 15188 ft | 305 kts | 92° |
| 2026-04-30 21:18 | 4.91477 | -74.57716 | 14860 ft | 304 kts | 92° |
| 2026-04-30 21:18 | 4.91453 | -74.55605 | 14495 ft | 302 kts | 92° |
| 2026-04-30 21:18 | 4.91426 | -74.53496 | 14188 ft | 301 kts | 92° |
| 2026-04-30 21:19 | 4.91398 | -74.51399 | 13873 ft | 300 kts | 92° |
| 2026-04-30 21:19 | 4.91370 | -74.49310 | 13530 ft | 297 kts | 92° |
| 2026-04-30 21:19 | 4.91353 | -74.47959 | 13339 ft | 287 kts | 92° |
| 2026-04-30 21:19 | 4.91331 | -74.46023 | 13213 ft | 268 kts | 92° |
| 2026-04-30 21:20 | 4.91306 | -74.44211 | 13067 ft | 252 kts | 95° |
| 2026-04-30 21:20 | 4.90998 | -74.42550 | 12909 ft | 235 kts | 110° |
| 2026-04-30 21:20 | 4.90303 | -74.41099 | 12598 ft | 228 kts | 124° |
| 2026-04-30 21:20 | 4.89294 | -74.39907 | 12264 ft | 221 kts | 137° |
| 2026-04-30 21:21 | 4.87733 | -74.38604 | 11941 ft | 221 kts | 139° |
| 2026-04-30 21:21 | 4.86938 | -74.37933 | 11783 ft | 220 kts | 137° |
| 2026-04-30 21:21 | 4.85079 | -74.35523 | 11788 ft | 220 kts | 126° |
| 2026-04-30 21:22 | 4.84175 | -74.34275 | 11809 ft | 222 kts | 126° |
| 2026-04-30 21:22 | 4.81386 | -74.30573 | 11509 ft | 222 kts | 127° |
| 2026-04-30 21:23 | 4.80455 | -74.29343 | 11259 ft | 220 kts | 127° |
| 2026-04-30 21:23 | 4.79539 | -74.28131 | 11009 ft | 217 kts | 127° |
| 2026-04-30 21:23 | 4.77773 | -74.25799 | 10528 ft | 195 kts | 127° |
| 2026-04-30 21:24 | 4.76981 | -74.24753 | 10313 ft | 181 kts | 128° |
| 2026-04-30 21:24 | 4.76238 | -74.23772 | 10107 ft | 173 kts | 127° |
| 2026-04-30 21:24 | 4.75525 | -74.22829 | 9901 ft | 168 kts | 126° |
| 2026-04-30 21:24 | 4.74824 | -74.21904 | 9709 ft | 166 kts | 126° |
| 2026-04-30 21:25 | 4.73434 | -74.20067 | 9325 ft | 164 kts | 128° |
| 2026-04-30 21:25 | 4.72754 | -74.19165 | 9050 ft | 163 kts | 127° |
| 2026-04-30 21:25 | 4.72080 | -74.18262 | 8834 ft | 161 kts | 129° |
| 2026-04-30 21:26 | 4.70735 | -74.16489 | 8379 ft | 154 kts | 129° |
| 2026-04-30 21:26 | 4.70178 | -74.15756 | 8373 ft | 108 kts | 127° |
| 2026-04-30 21:27 | 4.69728 | -74.15078 | 8371 ft | 23 kts | 101° |
| 2026-04-30 21:27 | 4.69711 | -74.14953 | 8373 ft | 18 kts | 97° |
| 2026-04-30 21:27 | 4.69734 | -74.14834 | 8373 ft | 18 kts | 43° |
| 2026-04-30 21:28 | 4.69816 | -74.14666 | 8371 ft | 16 kts | 128° |
| 2026-04-30 21:28 | 4.69778 | -74.14585 | 8373 ft | 11 kts | 56° |
| 2026-04-30 21:28 | 4.69808 | -74.14563 | 8373 ft | 0 kts | 37° |